Time;durP1;ratioP1;P1;durP2;ratioP2;P2;SDS_P1;SDS_P2;PMS_P1;PMS_P2;Temp;Humidity;BMP_temperature;BMP_pressure;BME280_temperature;BME280_humidity;BME280_pressure;Samples;Min_cycle;Max_cycle;Signal;HPM_P1;HPM_P2
2023/12/30 00:01:28;;;;;;;8.50;1.00;;;5.70;86.80;;;;;;5100465;28;20410;-77
2023/12/30 00:03:54;;;;;;;8.13;0.85;;;5.60;88.00;;;;;;5103478;28;20717;-77
2023/12/30 00:06:19;;;;;;;8.80;1.07;;;5.60;87.50;;;;;;5090944;28;20411;-77
2023/12/30 00:08:45;;;;;;;9.50;0.90;;;5.60;87.10;;;;;;5107400;28;20438;-77
2023/12/30 00:11:11;;;;;;;12.57;1.67;;;5.60;88.70;;;;;;5098907;28;20954;-77
2023/12/30 00:13:37;;;;;;;7.65;1.00;;;5.70;89.60;;;;;;5104146;28;20433;-77
2023/12/30 00:16:04;;;;;;;8.00;1.10;;;5.70;89.40;;;;;;5108402;28;20537;-77
2023/12/30 00:18:29;;;;;;;6.95;0.90;;;5.70;90.00;;;;;;5104882;28;20453;-77
2023/12/30 00:20:55;;;;;;;11.85;1.50;;;5.70;90.40;;;;;;5106933;28;20925;-77
2023/12/30 00:23:20;;;;;;;8.47;1.60;;;5.80;90.30;;;;;;5103353;28;20866;-77
2023/12/30 00:25:46;;;;;;;7.43;0.93;;;5.70;89.50;;;;;;5099060;28;20502;-77
2023/12/30 00:28:12;;;;;;;10.63;1.15;;;5.70;88.80;;;;;;5105364;28;20417;-77
2023/12/30 00:30:38;;;;;;;9.77;1.30;;;5.70;90.20;;;;;;5106973;28;20914;-77
2023/12/30 00:33:04;;;;;;;12.90;1.60;;;5.70;90.20;;;;;;5102918;28;20776;-77
2023/12/30 00:35:30;;;;;;;10.82;1.10;;;5.70;90.20;;;;;;5106845;28;20397;-77
2023/12/30 00:37:56;;;;;;;11.68;1.45;;;5.70;90.20;;;;;;5085627;28;20946;-77
2023/12/30 00:40:21;;;;;;;12.27;1.23;;;5.80;90.20;;;;;;5097036;28;20414;-77
2023/12/30 00:42:47;;;;;;;12.00;1.27;;;5.80;90.50;;;;;;5090844;28;20453;-77
2023/12/30 00:45:13;;;;;;;13.10;1.40;;;5.80;90.50;;;;;;5089498;28;20411;-77
2023/12/30 00:47:38;;;;;;;8.20;1.07;;;5.80;90.20;;;;;;5104553;28;20449;-77
2023/12/30 00:50:04;;;;;;;10.97;1.40;;;5.80;90.30;;;;;;5106146;28;20422;-77
2023/12/30 00:52:30;;;;;;;10.95;1.60;;;5.90;90.20;;;;;;5091806;28;20402;-77
2023/12/30 00:54:55;;;;;;;12.50;1.75;;;5.80;90.60;;;;;;5107341;28;20857;-77
2023/12/30 00:57:21;;;;;;;12.37;1.63;;;5.90;90.50;;;;;;5101342;28;20418;-77
2023/12/30 00:59:47;;;;;;;10.45;1.52;;;5.90;90.90;;;;;;5097843;28;20503;-77
2023/12/30 01:02:12;;;;;;;10.30;1.67;;;5.90;91.00;;;;;;5105967;28;20397;-77
2023/12/30 01:04:38;;;;;;;14.03;1.63;;;6.00;90.60;;;;;;5108070;28;20435;-77
2023/12/30 01:07:04;;;;;;;12.32;1.67;;;6.00;90.40;;;;;;5091972;28;20420;-77
2023/12/30 01:09:29;;;;;;;9.77;1.60;;;6.00;90.80;;;;;;5107041;28;20396;-77
2023/12/30 01:11:55;;;;;;;12.90;2.20;;;5.90;90.80;;;;;;5104223;28;20807;-77
2023/12/30 01:14:20;;;;;;;11.05;1.52;;;6.00;90.60;;;;;;5106886;28;20438;-77
2023/12/30 01:16:46;;;;;;;7.80;1.43;;;6.00;90.40;;;;;;5103691;28;20410;-77
2023/12/30 01:19:12;;;;;;;12.25;1.83;;;6.00;90.40;;;;;;5097866;28;20470;-77
2023/12/30 01:21:37;;;;;;;10.83;1.60;;;6.00;90.30;;;;;;5099119;28;20452;-77
2023/12/30 01:24:03;;;;;;;10.97;1.33;;;6.00;90.10;;;;;;5095849;28;20409;-77
2023/12/30 01:26:29;;;;;;;10.43;1.67;;;6.00;88.80;;;;;;5083973;28;20418;-77
2023/12/30 01:28:54;;;;;;;9.30;1.38;;;6.00;88.70;;;;;;5082983;28;20490;-77
2023/12/30 01:31:20;;;;;;;10.07;1.20;;;6.00;88.20;;;;;;5088942;28;20760;-78
2023/12/30 01:33:46;;;;;;;9.40;1.30;;;5.90;87.60;;;;;;5085118;28;20396;-77
2023/12/30 01:36:12;;;;;;;9.67;1.40;;;5.90;87.60;;;;;;5081625;28;20408;-77
2023/12/30 01:38:38;;;;;;;17.13;1.98;;;5.90;87.30;;;;;;5079682;28;20818;-77
2023/12/30 01:41:04;;;;;;;6.90;1.33;;;5.90;86.90;;;;;;5091910;28;20448;-77
2023/12/30 01:43:30;;;;;;;8.90;1.40;;;5.90;86.70;;;;;;5087906;28;20432;-77
2023/12/30 01:45:59;;;;;;;10.68;1.20;;;5.90;86.60;;;;;;5088745;28;21125;-77
2023/12/30 01:48:24;;;;;;;9.70;1.43;;;5.90;87.00;;;;;;5088302;28;20481;-77
2023/12/30 01:50:51;;;;;;;12.90;1.80;;;5.90;86.10;;;;;;5101366;28;20483;-77
2023/12/30 01:53:19;;;;;;;9.90;1.40;;;5.90;85.80;;;;;;5098175;28;20406;-77
2023/12/30 01:55:49;;;;;;;11.48;1.35;;;5.90;85.40;;;;;;5087184;28;20407;-77
2023/12/30 01:58:14;;;;;;;12.63;1.30;;;5.90;85.20;;;;;;5104784;28;20416;-77
2023/12/30 02:00:41;;;;;;;10.17;1.60;;;5.90;84.50;;;;;;5087106;28;20402;-76
2023/12/30 02:03:07;;;;;;;9.23;1.77;;;5.90;84.10;;;;;;5088449;28;20426;-76
2023/12/30 02:05:34;;;;;;;13.85;2.08;;;5.90;83.60;;;;;;5086978;28;20447;-77
2023/12/30 02:08:00;;;;;;;11.00;1.20;;;6.00;83.50;;;;;;5087917;28;20839;-76
2023/12/30 02:10:25;;;;;;;10.35;1.45;;;6.00;83.00;;;;;;5087094;28;20434;-77
2023/12/30 02:12:51;;;;;;;11.73;1.80;;;6.10;82.20;;;;;;5095824;28;20448;-77
2023/12/30 02:15:17;;;;;;;12.90;1.58;;;6.10;81.40;;;;;;5102581;28;20413;-77
2023/12/30 02:17:44;;;;;;;9.57;1.63;;;6.20;80.00;;;;;;5096897;28;20798;-77
2023/12/30 02:20:10;;;;;;;10.53;1.80;;;6.20;78.60;;;;;;5106189;28;20411;-77
2023/12/30 02:22:40;;;;;;;12.63;1.80;;;6.10;77.30;;;;;;5096826;28;20919;-77
2023/12/30 02:25:06;;;;;;;15.25;2.20;;;6.10;77.00;;;;;;5102316;28;20458;-77
2023/12/30 02:27:32;;;;;;;12.13;1.70;;;6.10;77.00;;;;;;5097456;28;20979;-78
2023/12/30 02:29:57;;;;;;;10.00;1.37;;;6.10;76.50;;;;;;5100460;28;20410;-77
2023/12/30 02:32:23;;;;;;;11.10;1.60;;;6.10;75.90;;;;;;5106466;28;20460;-78
2023/12/30 02:34:48;;;;;;;5.87;1.17;;;6.10;75.30;;;;;;5103514;28;20410;-77
2023/12/30 02:37:14;;;;;;;10.27;1.93;;;6.10;75.60;;;;;;5106042;28;20404;-77
2023/12/30 02:39:39;;;;;;;11.30;1.45;;;6.10;76.20;;;;;;5104525;28;20531;-77
2023/12/30 02:42:05;;;;;;;11.80;2.00;;;6.20;76.70;;;;;;5105133;28;20419;-77
2023/12/30 02:44:31;;;;;;;10.98;1.65;;;6.20;76.70;;;;;;5102201;28;20559;-78
2023/12/30 02:46:56;;;;;;;9.05;1.25;;;6.30;76.80;;;;;;5085886;28;20438;-77
2023/12/30 02:49:22;;;;;;;10.67;1.63;;;6.30;76.30;;;;;;5085952;28;20540;-78
2023/12/30 02:51:47;;;;;;;12.70;1.75;;;6.40;75.90;;;;;;5086358;28;20416;-78
2023/12/30 02:54:13;;;;;;;10.70;1.47;;;6.40;75.90;;;;;;5086039;28;20422;-78
2023/12/30 02:56:39;;;;;;;7.53;1.33;;;6.40;75.40;;;;;;5085896;28;20547;-78
2023/12/30 02:59:04;;;;;;;8.37;1.80;;;6.40;75.30;;;;;;5086800;28;20421;-78
2023/12/30 03:01:31;;;;;;;12.65;1.58;;;6.40;74.90;;;;;;5095865;28;20759;-78
2023/12/30 03:03:58;;;;;;;11.63;1.90;;;6.50;74.60;;;;;;5104386;28;21001;-78
2023/12/30 03:06:25;;;;;;;10.50;1.88;;;6.50;74.00;;;;;;5106000;28;20400;-78
2023/12/30 03:08:51;;;;;;;10.48;1.48;;;6.50;73.40;;;;;;5104115;28;20413;-77
2023/12/30 03:11:17;;;;;;;10.77;1.40;;;6.50;72.80;;;;;;5106008;28;20400;-78
2023/12/30 03:13:43;;;;;;;9.57;1.73;;;6.60;71.90;;;;;;5107416;28;20451;-78
2023/12/30 03:16:14;;;;;;;15.65;1.90;;;6.60;71.40;;;;;;5108222;28;20415;-77
2023/12/30 03:18:40;;;;;;;12.27;2.00;;;6.60;71.20;;;;;;5106434;28;20398;-76
2023/12/30 03:21:07;;;;;;;13.88;1.65;;;6.60;70.80;;;;;;5108920;28;20414;-77
2023/12/30 03:23:34;;;;;;;12.95;1.75;;;6.60;70.90;;;;;;5093530;28;20950;-77
2023/12/30 03:26:00;;;;;;;13.82;1.95;;;6.60;70.90;;;;;;5108216;28;20800;-77
2023/12/30 03:28:26;;;;;;;10.20;1.50;;;6.60;70.40;;;;;;5104836;28;20486;-77
2023/12/30 03:30:52;;;;;;;11.85;1.98;;;6.70;70.00;;;;;;5108444;27;20396;-77
2023/12/30 03:33:17;;;;;;;11.10;1.70;;;6.70;68.80;;;;;;5102718;28;20416;-77
2023/12/30 03:35:43;;;;;;;8.63;1.55;;;6.70;68.10;;;;;;5101145;28;20442;-76
2023/12/30 03:38:09;;;;;;;10.15;1.60;;;6.70;67.90;;;;;;5090953;28;20806;-77
2023/12/30 03:40:35;;;;;;;10.20;1.50;;;6.70;67.50;;;;;;5100197;28;20398;-77
2023/12/30 03:43:01;;;;;;;11.27;1.30;;;6.80;67.00;;;;;;5100821;28;20517;-77
2023/12/30 03:45:26;;;;;;;13.02;1.83;;;6.70;67.10;;;;;;5089037;28;20981;-77
2023/12/30 03:47:52;;;;;;;11.18;2.00;;;6.70;66.60;;;;;;5089125;28;20541;-77
2023/12/30 03:50:18;;;;;;;10.98;1.75;;;6.80;65.80;;;;;;5092383;28;20432;-78
2023/12/30 03:52:44;;;;;;;16.60;2.25;;;6.80;65.80;;;;;;5090401;28;21493;-78
2023/12/30 03:55:10;;;;;;;11.23;2.00;;;6.80;65.40;;;;;;5092902;28;20434;-77
2023/12/30 03:57:36;;;;;;;11.67;1.90;;;6.80;65.20;;;;;;5092915;28;20953;-78
2023/12/30 04:00:03;;;;;;;14.60;1.98;;;6.90;64.40;;;;;;5091567;28;20577;-78
2023/12/30 04:02:28;;;;;;;9.75;1.63;;;6.90;62.90;;;;;;5095663;28;20401;-77
2023/12/30 04:04:54;;;;;;;12.82;1.85;;;6.90;61.10;;;;;;5092616;28;20455;-78
2023/12/30 04:07:19;;;;;;;12.23;2.30;;;6.90;60.40;;;;;;5094406;28;20970;-78
2023/12/30 04:09:45;;;;;;;10.63;1.80;;;7.00;59.60;;;;;;5093582;28;20410;-78
2023/12/30 04:12:11;;;;;;;11.77;1.60;;;6.90;58.30;;;;;;5095552;28;20426;-78
2023/12/30 04:14:36;;;;;;;11.30;1.75;;;6.90;57.70;;;;;;5092936;28;20398;-78
2023/12/30 04:17:02;;;;;;;12.33;1.70;;;7.00;57.20;;;;;;5092262;28;20413;-77
2023/12/30 04:19:27;;;;;;;9.60;1.57;;;7.00;57.50;;;;;;5092884;28;20418;-78
2023/12/30 04:21:53;;;;;;;9.85;1.80;;;7.00;57.10;;;;;;5095805;28;20414;-78
2023/12/30 04:24:19;;;;;;;10.40;1.93;;;7.00;56.10;;;;;;5091786;28;20962;-78
2023/12/30 04:26:45;;;;;;;14.82;2.25;;;7.00;56.00;;;;;;5094480;28;20409;-78
2023/12/30 04:29:11;;;;;;;10.43;1.67;;;7.00;56.00;;;;;;5074062;28;20412;-78
2023/12/30 04:31:36;;;;;;;9.35;1.60;;;7.00;55.20;;;;;;5091645;28;20398;-78
2023/12/30 04:34:02;;;;;;;15.13;2.13;;;7.00;55.90;;;;;;5073422;28;20406;-78
2023/12/30 04:36:28;;;;;;;12.60;1.80;;;7.00;56.60;;;;;;5091439;28;20404;-78
2023/12/30 04:38:54;;;;;;;12.00;2.10;;;7.00;57.80;;;;;;5090977;28;20438;-77
2023/12/30 04:41:19;;;;;;;10.32;1.67;;;7.00;59.30;;;;;;5090327;28;20947;-77
2023/12/30 04:43:45;;;;;;;12.40;1.80;;;6.90;59.90;;;;;;5089823;28;20456;-78
2023/12/30 04:46:14;;;;;;;11.13;2.03;;;6.90;60.00;;;;;;5089395;28;20409;-78
2023/12/30 04:48:39;;;;;;;12.20;1.85;;;6.90;60.30;;;;;;5089606;28;20409;-78
2023/12/30 04:51:05;;;;;;;11.27;1.83;;;6.80;60.70;;;;;;5100808;28;20968;-78
2023/12/30 04:53:31;;;;;;;14.35;2.13;;;6.80;60.40;;;;;;5100150;28;20452;-78
2023/12/30 04:55:56;;;;;;;13.52;2.13;;;6.80;61.00;;;;;;5077143;28;20500;-78
2023/12/30 04:58:22;;;;;;;15.13;1.90;;;6.80;61.30;;;;;;5099185;28;20884;-78
2023/12/30 05:00:48;;;;;;;14.30;1.80;;;6.80;61.00;;;;;;5105001;28;20426;-78
2023/12/30 05:03:15;;;;;;;11.65;1.95;;;6.80;61.00;;;;;;5109188;28;20420;-78
2023/12/30 05:05:41;;;;;;;13.88;1.95;;;6.80;61.10;;;;;;5108580;28;20793;-78
2023/12/30 05:08:07;;;;;;;11.38;1.92;;;6.90;61.20;;;;;;5109039;28;20396;-78
2023/12/30 05:10:33;;;;;;;15.82;2.35;;;6.80;61.20;;;;;;5106957;28;20409;-77
2023/12/30 05:12:59;;;;;;;12.77;1.80;;;6.80;61.30;;;;;;5108764;28;20850;-78
2023/12/30 05:15:25;;;;;;;11.97;2.13;;;6.80;61.20;;;;;;5094828;28;20415;-78
2023/12/30 05:17:51;;;;;;;14.13;2.10;;;6.90;60.80;;;;;;5106340;28;20400;-78
2023/12/30 05:20:17;;;;;;;12.85;2.53;;;6.90;60.30;;;;;;5105666;28;20501;-78
2023/12/30 05:22:43;;;;;;;13.68;1.73;;;6.90;60.50;;;;;;5107118;28;20411;-78
2023/12/30 05:25:09;;;;;;;10.90;1.73;;;6.90;59.80;;;;;;5105496;28;20405;-78
2023/12/30 05:27:35;;;;;;;9.77;2.00;;;7.00;58.90;;;;;;5106449;28;20408;-78
2023/12/30 05:30:01;;;;;;;11.75;1.92;;;7.00;59.00;;;;;;5104873;28;20403;-78
2023/12/30 05:32:27;;;;;;;11.95;1.95;;;7.00;58.60;;;;;;5088628;28;20407;-77
2023/12/30 05:34:52;;;;;;;12.35;1.73;;;7.00;58.90;;;;;;5101579;28;20414;-77
2023/12/30 05:37:18;;;;;;;15.60;2.20;;;7.00;58.70;;;;;;5078762;28;20407;-77
2023/12/30 05:39:44;;;;;;;12.88;2.10;;;7.00;59.60;;;;;;5102708;28;20402;-78
2023/12/30 05:42:09;;;;;;;10.52;2.13;;;7.00;61.90;;;;;;5105853;28;20404;-77
2023/12/30 05:44:36;;;;;;;12.18;1.50;;;7.00;64.80;;;;;;5102371;28;20555;-78
2023/12/30 05:47:02;;;;;;;15.07;2.20;;;6.90;65.60;;;;;;5087584;28;20491;-78
2023/12/30 05:49:28;;;;;;;16.97;2.30;;;6.90;67.30;;;;;;5087145;28;20410;-78
2023/12/30 05:51:53;;;;;;;13.38;2.05;;;6.90;68.50;;;;;;5087379;28;20406;-78
2023/12/30 05:54:19;;;;;;;13.30;2.28;;;6.80;68.60;;;;;;5088047;28;20429;-78
2023/12/30 05:56:45;;;;;;;10.87;2.00;;;6.80;69.60;;;;;;5088322;28;20394;-78
2023/12/30 05:59:10;;;;;;;12.85;1.85;;;6.80;69.30;;;;;;5087713;28;20929;-78
2023/12/30 06:01:46;;;;;;;13.00;2.57;;;6.70;69.30;;;;;;5087862;28;20501;-78
2023/12/30 06:04:12;;;;;;;12.68;2.00;;;6.80;69.50;;;;;;5088510;28;20501;-77
2023/12/30 06:06:37;;;;;;;10.50;1.80;;;6.70;69.70;;;;;;5087182;28;20402;-77
2023/12/30 06:09:03;;;;;;;12.15;1.70;;;6.80;69.50;;;;;;5086746;28;20803;-78
2023/12/30 06:11:29;;;;;;;16.73;2.20;;;6.80;69.50;;;;;;5087164;28;20505;-78
2023/12/30 06:13:55;;;;;;;13.45;1.80;;;6.70;69.00;;;;;;5086810;28;20408;-78
2023/12/30 06:16:20;;;;;;;10.80;1.92;;;6.70;69.80;;;;;;5088546;28;20476;-78
2023/12/30 06:18:46;;;;;;;12.27;2.22;;;6.70;70.60;;;;;;5086862;28;20410;-78
2023/12/30 06:21:12;;;;;;;10.60;1.90;;;6.70;71.70;;;;;;5087018;28;20405;-78
2023/12/30 06:23:37;;;;;;;13.25;2.25;;;6.70;71.90;;;;;;5086800;28;20472;-78
2023/12/30 06:26:03;;;;;;;14.03;2.13;;;6.70;71.60;;;;;;5086047;28;20402;-78
2023/12/30 06:28:29;;;;;;;12.20;2.20;;;6.80;71.60;;;;;;5070088;28;20418;-78
2023/12/30 06:30:55;;;;;;;11.63;1.85;;;6.80;71.60;;;;;;5085845;28;20416;-78
2023/12/30 06:33:22;;;;;;;13.50;2.20;;;6.70;71.00;;;;;;5087950;28;20823;-78
2023/12/30 06:35:48;;;;;;;13.52;2.20;;;6.80;71.20;;;;;;5098999;28;20436;-78
2023/12/30 06:38:16;;;;;;;13.30;2.50;;;6.80;70.70;;;;;;5106037;28;20790;-77
2023/12/30 06:40:42;;;;;;;11.63;1.87;;;6.70;70.50;;;;;;5107141;28;20396;-78
2023/12/30 06:43:08;;;;;;;11.90;1.80;;;6.70;70.60;;;;;;5103844;28;20802;-78
2023/12/30 06:45:34;;;;;;;16.85;2.13;;;6.70;71.00;;;;;;5095703;28;20486;-78
2023/12/30 06:48:00;;;;;;;12.55;2.38;;;6.70;71.40;;;;;;5090435;28;20464;-78
2023/12/30 06:50:26;;;;;;;13.82;1.83;;;6.70;72.30;;;;;;5103625;28;20400;-78
2023/12/30 06:52:54;;;;;;;13.43;2.25;;;6.70;72.20;;;;;;5093788;28;20764;-78
2023/12/30 06:55:20;;;;;;;18.08;2.60;;;6.70;72.40;;;;;;5092379;28;20413;-78
2023/12/30 06:57:45;;;;;;;12.20;1.75;;;6.70;72.00;;;;;;5104515;28;20402;-78
2023/12/30 07:00:11;;;;;;;12.13;1.87;;;6.80;71.90;;;;;;5091657;28;20598;-78
2023/12/30 07:02:37;;;;;;;13.40;1.92;;;6.80;72.40;;;;;;5090527;28;20405;-78
2023/12/30 07:05:04;;;;;;;12.52;2.10;;;6.80;71.90;;;;;;5091836;28;20417;-78
2023/12/30 07:07:29;;;;;;;13.27;2.00;;;6.80;71.50;;;;;;5091212;28;20473;-78
2023/12/30 07:09:55;;;;;;;13.53;1.90;;;6.80;71.20;;;;;;5102996;28;20487;-77
2023/12/30 07:12:21;;;;;;;16.15;2.13;;;6.80;71.10;;;;;;5105688;28;20806;-78
2023/12/30 07:14:46;;;;;;;13.88;1.90;;;6.80;71.00;;;;;;5090341;28;20413;-78
2023/12/30 07:17:12;;;;;;;16.30;2.23;;;6.80;70.90;;;;;;5095365;28;20392;-78
2023/12/30 07:19:37;;;;;;;13.75;2.25;;;6.90;71.10;;;;;;5109591;28;20548;-78
2023/12/30 07:22:03;;;;;;;14.43;2.00;;;6.80;70.90;;;;;;5105364;28;20547;-78
2023/12/30 07:24:28;;;;;;;14.25;2.00;;;6.90;71.00;;;;;;5102868;28;20771;-78
2023/12/30 07:26:54;;;;;;;11.95;1.98;;;6.80;71.10;;;;;;5097140;28;20407;-78
2023/12/30 07:29:20;;;;;;;11.67;1.60;;;6.90;71.20;;;;;;5110908;28;20882;-78
2023/12/30 07:31:45;;;;;;;9.75;1.85;;;6.80;71.10;;;;;;5105730;28;20409;-78
2023/12/30 07:34:11;;;;;;;9.50;1.90;;;6.80;71.10;;;;;;5100433;28;20470;-78
2023/12/30 07:36:37;;;;;;;14.32;2.08;;;6.80;70.80;;;;;;5106285;28;20409;-78
2023/12/30 07:39:03;;;;;;;14.30;2.03;;;6.80;69.90;;;;;;5109327;28;20487;-77
2023/12/30 07:41:28;;;;;;;13.95;2.03;;;6.80;69.80;;;;;;5106240;28;20849;-78
2023/12/30 07:43:54;;;;;;;11.43;1.50;;;6.90;69.50;;;;;;5109462;28;20430;-78
2023/12/30 07:46:21;;;;;;;14.02;2.30;;;6.90;69.30;;;;;;5092920;28;20485;-77
2023/12/30 07:48:46;;;;;;;13.32;2.33;;;6.80;69.30;;;;;;5090789;28;20406;-78
2023/12/30 07:51:12;;;;;;;14.03;2.03;;;6.80;69.20;;;;;;5093593;28;20462;-78
2023/12/30 07:53:37;;;;;;;13.77;2.72;;;6.80;68.50;;;;;;5110319;28;20404;-78
2023/12/30 07:56:03;;;;;;;12.27;1.83;;;6.70;68.30;;;;;;5107279;28;20401;-78
2023/12/30 07:58:29;;;;;;;13.18;1.92;;;6.70;68.70;;;;;;5091583;28;20397;-78
2023/12/30 08:00:55;;;;;;;10.85;1.73;;;6.70;69.70;;;;;;5108838;28;20503;-78
2023/12/30 08:03:20;;;;;;;12.63;2.60;;;6.70;70.30;;;;;;5108941;28;20434;-78
2023/12/30 08:05:46;;;;;;;12.33;2.00;;;6.60;71.30;;;;;;5108751;28;20396;-78
2023/12/30 08:08:14;;;;;;;11.67;1.80;;;6.60;71.60;;;;;;5107764;28;20428;-78
2023/12/30 08:10:40;;;;;;;13.18;1.80;;;6.60;72.60;;;;;;5107215;28;20404;-78
2023/12/30 08:13:05;;;;;;;10.50;2.20;;;6.60;73.10;;;;;;5107874;28;20408;-78
2023/12/30 08:15:31;;;;;;;11.38;2.35;;;6.60;73.80;;;;;;5094562;28;20870;-78
2023/12/30 08:17:56;;;;;;;14.40;2.40;;;6.60;74.00;;;;;;5087917;28;20493;-78
2023/12/30 08:20:22;;;;;;;13.27;2.13;;;6.70;74.00;;;;;;5087230;28;20402;-78
2023/12/30 08:22:50;;;;;;;8.82;1.90;;;6.70;73.90;;;;;;5072109;28;20897;-78
2023/12/30 08:25:16;;;;;;;10.67;1.87;;;6.70;73.40;;;;;;5090997;28;20415;-78
2023/12/30 08:27:41;;;;;;;12.33;1.93;;;6.80;73.30;;;;;;5084154;28;20402;-78
2023/12/30 08:30:07;;;;;;;16.20;2.70;;;6.80;73.20;;;;;;5081912;28;20485;-78
2023/12/30 08:32:33;;;;;;;13.07;1.98;;;6.80;72.30;;;;;;5073390;28;20940;-78
2023/12/30 08:35:02;;;;;;;12.00;2.08;;;6.90;71.80;;;;;;5078212;28;20489;-78
2023/12/30 08:37:27;;;;;;;9.82;1.95;;;6.80;71.10;;;;;;5086850;28;20400;-77
2023/12/30 08:39:53;;;;;;;10.10;1.80;;;6.80;70.70;;;;;;5080272;28;20398;-78
2023/12/30 08:42:19;;;;;;;10.98;1.92;;;6.90;70.40;;;;;;5085956;28;20463;-78
2023/12/30 08:44:45;;;;;;;9.75;1.98;;;6.90;69.60;;;;;;5087222;28;20441;-78
2023/12/30 08:47:11;;;;;;;8.03;1.77;;;6.80;68.70;;;;;;5082193;28;20461;-78
2023/12/30 08:49:36;;;;;;;11.13;1.90;;;6.90;67.90;;;;;;5077760;28;20798;-79
2023/12/30 08:52:03;;;;;;;11.90;2.22;;;6.90;67.50;;;;;;5088243;28;20394;-79
2023/12/30 08:54:29;;;;;;;12.73;2.00;;;6.90;66.70;;;;;;5076316;28;20472;-78
2023/12/30 08:56:55;;;;;;;10.43;1.50;;;6.90;67.00;;;;;;5089727;28;20398;-78
2023/12/30 08:59:26;;;;;;;12.50;1.97;;;6.90;67.20;;;;;;5089820;28;20489;-77
2023/12/30 09:01:52;;;;;;;8.10;1.52;;;7.00;66.70;;;;;;5088517;28;20874;-78
2023/12/30 09:04:18;;;;;;;11.30;1.70;;;7.00;66.00;;;;;;5089910;28;20500;-78
2023/12/30 09:06:44;;;;;;;12.73;2.47;;;7.00;65.50;;;;;;5089362;28;20444;-78
2023/12/30 09:09:11;;;;;;;10.68;1.77;;;7.00;65.10;;;;;;5089568;28;20482;-78
2023/12/30 09:11:38;;;;;;;12.75;2.08;;;7.00;65.40;;;;;;5088156;28;20966;-78
2023/12/30 09:14:05;;;;;;;12.23;1.92;;;7.00;65.70;;;;;;5089419;28;20401;-78
2023/12/30 09:16:32;;;;;;;9.98;1.65;;;7.00;65.40;;;;;;5088685;28;20436;-78
2023/12/30 09:18:57;;;;;;;11.63;1.75;;;7.00;66.00;;;;;;5087401;28;20467;-78
2023/12/30 09:21:23;;;;;;;11.35;1.65;;;7.10;66.40;;;;;;5089371;28;20414;-79
2023/12/30 09:23:50;;;;;;;13.70;2.00;;;7.00;66.20;;;;;;5081147;28;21057;-79
2023/12/30 09:26:16;;;;;;;15.07;2.10;;;7.10;66.90;;;;;;5082935;28;20413;-80
2023/12/30 09:28:43;;;;;;;15.20;2.42;;;7.10;66.40;;;;;;5088943;28;20907;-79
2023/12/30 09:31:08;;;;;;;15.75;1.95;;;7.10;65.90;;;;;;5095233;28;20541;-79
2023/12/30 09:33:34;;;;;;;8.98;1.40;;;7.10;65.50;;;;;;5092521;28;20479;-78
2023/12/30 09:36:00;;;;;;;13.30;1.90;;;7.10;65.70;;;;;;5087670;28;20835;-78
2023/12/30 09:38:26;;;;;;;13.63;1.63;;;7.10;65.60;;;;;;5088615;28;20402;-79
2023/12/30 09:40:53;;;;;;;12.10;2.00;;;7.10;65.50;;;;;;5086330;28;21412;-78
2023/12/30 09:43:26;;;;;;;13.10;1.83;;;7.10;64.80;;;;;;5089131;28;20803;-79
2023/12/30 09:45:53;;;;;;;10.70;1.73;;;7.10;65.30;;;;;;5069964;28;20743;-78
2023/12/30 09:48:26;;;;;;;14.65;1.90;;;7.20;64.00;;;;;;5100720;28;20394;-79
2023/12/30 09:50:56;;;;;;;11.13;1.70;;;7.20;63.10;;;;;;5083067;28;20410;-77
2023/12/30 09:53:22;;;;;;;9.65;2.13;;;7.20;63.20;;;;;;5095842;28;20818;-78
2023/12/30 09:55:50;;;;;;;11.32;1.92;;;7.20;62.70;;;;;;5092009;28;20406;-78
2023/12/30 09:58:17;;;;;;;14.80;1.40;;;7.20;63.30;;;;;;5106593;28;20396;-79
2023/12/30 10:00:43;;;;;;;12.52;1.63;;;7.30;63.20;;;;;;5098658;28;20422;-79
2023/12/30 10:03:13;;;;;;;9.55;1.80;;;7.30;63.00;;;;;;5084782;28;20482;-78
2023/12/30 10:05:40;;;;;;;13.37;2.20;;;7.30;62.60;;;;;;5086493;28;20788;-79
2023/12/30 10:08:07;;;;;;;11.15;1.88;;;7.30;62.00;;;;;;5097145;28;20400;-78
2023/12/30 10:10:52;;;;;;;10.35;1.52;;;7.30;60.20;;;;;;5086825;28;20429;-78
2023/12/30 10:13:21;;;;;;;10.93;1.52;;;7.30;59.80;;;;;;5081713;28;20430;-79
2023/12/30 10:15:48;;;;;;;10.70;1.47;;;7.30;60.30;;;;;;5103219;28;20396;-78
2023/12/30 10:18:15;;;;;;;12.15;1.73;;;7.40;61.20;;;;;;5104692;28;20411;-78
2023/12/30 10:20:45;;;;;;;11.88;1.55;;;7.30;61.00;;;;;;5104692;28;20415;-78
2023/12/30 10:23:11;;;;;;;12.27;2.05;;;7.30;61.30;;;;;;5101230;28;20419;-79
2023/12/30 10:25:37;;;;;;;11.25;1.60;;;7.30;60.70;;;;;;5093139;28;20400;-78
2023/12/30 10:28:03;;;;;;;10.97;1.67;;;7.40;59.50;;;;;;5102752;28;20473;-79
2023/12/30 10:30:30;;;;;;;11.25;2.10;;;7.40;59.10;;;;;;5102306;28;20477;-78
2023/12/30 10:33:09;;;;;;;8.73;1.35;;;7.50;60.00;;;;;;5102164;28;20473;-79
2023/12/30 10:35:35;;;;;;;12.10;1.55;;;7.50;58.90;;;;;;5085765;28;20412;-79
2023/12/30 10:38:04;;;;;;;10.95;1.70;;;7.60;58.80;;;;;;5094837;28;20788;-80
2023/12/30 10:40:30;;;;;;;15.48;2.15;;;7.60;55.60;;;;;;5092288;28;20450;-79
2023/12/30 10:42:57;;;;;;;9.65;1.50;;;7.70;57.00;;;;;;5092467;28;20456;-79
2023/12/30 10:45:24;;;;;;;10.57;1.80;;;7.80;55.70;;;;;;5073337;28;20469;-79
2023/12/30 10:47:50;;;;;;;15.70;1.58;;;7.80;52.80;;;;;;5090042;28;20443;-79
2023/12/30 10:50:16;;;;;;;11.15;1.63;;;7.80;54.40;;;;;;5107825;28;20401;-79
2023/12/30 10:52:50;;;;;;;9.03;1.50;;;8.00;55.30;;;;;;5089824;28;20973;-79
2023/12/30 10:55:17;;;;;;;11.18;1.70;;;8.20;56.70;;;;;;5098877;28;20486;-79
2023/12/30 10:57:54;;;;;;;9.05;1.65;;;8.40;53.20;;;;;;5090059;28;20421;-78
2023/12/30 11:00:20;;;;;;;11.05;1.58;;;8.50;46.40;;;;;;5095439;28;20773;-78
2023/12/30 11:02:47;;;;;;;12.05;1.60;;;8.60;44.20;;;;;;5097996;28;20419;-79
2023/12/30 11:05:24;;;;;;;9.95;1.58;;;8.70;42.70;;;;;;5093629;28;20891;-78
2023/12/30 11:07:50;;;;;;;10.23;1.20;;;8.80;41.60;;;;;;5105760;28;20408;-78
2023/12/30 11:10:17;;;;;;;10.40;1.27;;;8.90;38.10;;;;;;5105175;28;20396;-78
2023/12/30 11:12:44;;;;;;;12.63;2.10;;;9.00;36.50;;;;;;5094188;28;20439;-79
2023/12/30 11:15:23;;;;;;;10.27;1.45;;;9.10;30.30;;;;;;5092097;28;20394;-78
2023/12/30 11:17:49;;;;;;;13.35;1.88;;;9.20;32.30;;;;;;5086294;28;21032;-78
2023/12/30 11:20:24;;;;;;;9.23;1.50;;;9.30;28.50;;;;;;5090050;28;20493;-78
2023/12/30 11:22:52;;;;;;;9.57;1.30;;;9.40;31.60;;;;;;5104748;28;20400;-78
2023/12/30 11:25:19;;;;;;;11.50;1.47;;;9.40;23.50;;;;;;5100949;28;20459;-78
2023/12/30 11:27:52;;;;;;;11.00;1.80;;;9.50;22.10;;;;;;5104646;28;20432;-78
2023/12/30 11:30:24;;;;;;;10.83;1.50;;;9.50;22.90;;;;;;5100818;28;20457;-77
2023/12/30 11:32:52;;;;;;;8.93;1.45;;;9.50;25.40;;;;;;5103236;28;20512;-78
2023/12/30 11:35:18;;;;;;;11.55;1.92;;;9.60;23.40;;;;;;5104201;28;20453;-78
2023/12/30 11:37:45;;;;;;;8.70;1.42;;;9.50;19.80;;;;;;5104652;28;20396;-78
2023/12/30 11:40:17;;;;;;;9.30;1.10;;;9.30;21.10;;;;;;5104106;28;20414;-78
2023/12/30 11:42:43;;;;;;;10.03;1.50;;;9.20;23.00;;;;;;5105186;28;20862;-78
2023/12/30 11:45:09;;;;;;;7.75;1.23;;;9.10;25.00;;;;;;5100331;28;20421;-78
2023/12/30 11:47:36;;;;;;;8.60;1.50;;;9.00;22.80;;;;;;5089398;28;20449;-78
2023/12/30 11:50:07;;;;;;;8.98;1.40;;;8.90;25.30;;;;;;5090417;28;20429;-77
2023/12/30 11:52:36;;;;;;;8.52;1.90;;;8.70;26.40;;;;;;5091041;28;20741;-78
2023/12/30 11:55:02;;;;;;;10.30;1.60;;;8.60;28.30;;;;;;5079728;28;21138;-78
2023/12/30 11:57:30;;;;;;;9.30;1.67;;;8.40;29.60;;;;;;5086108;28;20477;-78
2023/12/30 11:59:56;;;;;;;10.30;1.50;;;8.40;32.40;;;;;;5089977;28;20435;-78
2023/12/30 12:02:23;;;;;;;9.85;1.55;;;8.40;34.50;;;;;;5090270;28;20406;-77
2023/12/30 12:04:49;;;;;;;8.48;1.95;;;8.40;35.90;;;;;;5099383;28;20492;-78
2023/12/30 12:07:15;;;;;;;10.90;1.80;;;8.30;35.60;;;;;;5109982;28;20428;-78
2023/12/30 12:09:42;;;;;;;9.57;1.70;;;8.30;37.40;;;;;;5109878;28;20902;-78
2023/12/30 12:12:09;;;;;;;7.60;1.48;;;8.40;38.30;;;;;;5109087;28;20690;-77
2023/12/30 12:14:35;;;;;;;9.20;1.63;;;8.40;39.10;;;;;;5110500;28;20401;-78
2023/12/30 12:17:05;;;;;;;11.23;1.60;;;8.50;40.00;;;;;;5108992;28;20404;-79
2023/12/30 12:19:31;;;;;;;10.60;1.80;;;8.60;41.20;;;;;;5091579;28;20512;-79
2023/12/30 12:22:00;;;;;;;7.88;1.45;;;8.70;40.60;;;;;;5105618;28;20818;-79
2023/12/30 12:24:26;;;;;;;9.57;2.13;;;8.70;36.10;;;;;;5100542;28;20424;-79
2023/12/30 12:26:52;;;;;;;14.35;2.35;;;8.80;35.40;;;;;;5107583;28;20396;-78
2023/12/30 12:29:20;;;;;;;9.60;1.83;;;8.80;33.20;;;;;;5107883;28;20408;-79
2023/12/30 12:31:46;;;;;;;7.78;1.25;;;9.00;36.50;;;;;;5107963;28;20399;-78
2023/12/30 12:34:22;;;;;;;12.77;1.52;;;9.00;29.00;;;;;;5109215;28;20400;-78
2023/12/30 12:36:47;;;;;;;7.22;1.50;;;8.90;29.00;;;;;;5108482;28;20409;-78
2023/12/30 12:39:13;;;;;;;9.05;1.40;;;8.90;30.50;;;;;;5109579;28;20400;-78
2023/12/30 12:41:39;;;;;;;8.90;1.88;;;8.80;29.70;;;;;;5105479;28;20419;-78
2023/12/30 12:44:04;;;;;;;9.10;1.40;;;8.70;29.60;;;;;;5107595;28;20513;-78